University Park, PA (16802)

11:46 AM EST on February 12, 2016 (GMT -0500)
Our Lady of Victory School | | Change Station
CLOSE
Current Station
Personal Weather Station
Location: State College, PA
Elevation: 1145 ft
Nearby Weather Stations

Elev 1145 ft 40.78 °N, 77.87 °W | Updated 21 seconds ago

Mostly Cloudy
Mostly Cloudy
18.9 °F
Feels Like 19 °F
N
2.9
Wind Variable Wind from WSW
Gusts 4.9 mph

Today
High -- | Low -- °F
--% Chance of Precip.
Yesterday
High -- | Low -- °F
Precip. -- in
Pressure 30.10 in
Visibility 10.0 miles
Clouds Few 2500 ft
Windchill 19 °F
Dew Point -3 °F
Humidity 37%
Rainfall 0.00 in
Snow Depth Not available.
7:09 AM 5:41 PM
Waxing Crescent, 22% visible
METAR KUNV 121553Z 24008KT 10SM FEW025 M09/M15 A3010
Pressure 30.10 in
Visibility 10.0 miles
Clouds Few 2500 ft
Windchill 19 °F
Dew Point -3 °F
Humidity 37%
Rainfall 0.00 in
Snow Depth Not available.
7:09 AM 5:41 PM
Waxing Crescent, 22% visible
METAR KUNV 121553Z 24008KT 10SM FEW025 M09/M15 A3010

10-Day Weather Forecast

Almanac

Astronomy

Feb. 12, 2016 Rise Set
Actual Time
Civil Twilight
Nautical Twilight
Astronomical Twilight
Moon
Length of Visible Light
Length of Day
Tomorrow will be .
, % of the Moon is Illuminated

Today's Extremes

State Highs State Lows

Community

WunderPhotos

Upload Photos

1,892,354 photos uploaded!

WunderBlog® & News

Nearby

Air Quality

  Air Quality AQ Index Pollutant
Not available.

Snow Depth

Station Depth Elevation

Earthquake Activity

City Distance Mag. Time & Date
Minimum magnitude displayed is 2.5.

Coastal Water Temperatures

Place Temperature

Stations

Nearby Weather Stations

Station Location Temp. Windchill Dew Point Humidity Wind Precip. Elev Updated Type
                   

Watches & Warnings

There are currently no watches in effect.